Goldenrod, Florida
Current Conditions -  °F | °C
As of 2:53 PM on Saturday 20 Dec 2014 (Local Time) from KORL Reporting Station
Few Clouds Few Clouds  
Wind Chill: 76°   Ceiling: Unl
Heat Index: 76°   Visibility: 10mi
Dew Point: 59°   Wind: 0mph
Humidity: 56%   Direction: NA
Pressure: 30.04"   Gusts: NA
Location:  28.61°N, 81.28°W
Report Text: KORL 201953Z 00000KT 10SM FEW042 24/15 A3004 RMK AO2 SLP177 T02440150
Loading
Personal Weather Stations






























Interactive Weather Map New forecast layout! Learn more

10-Day Weather Forecast

Advertisements
Track Severe Weather on mobile